Messwerte Kruger Mpumalanga Intl

Temperatur

Temperatur
°C
1660676400 21.00 21.00 15
1660680000 22.00 22.00 13
1660683600 23.00 23.00
1660687200 0.00 0.00 13
1660690800 1.00 1.00
1660694400 2.00 2.00 12
1660698000 3.00 3.00 12
1660701600 4.00 4.00 13
1660705200 5.00 5.00 9
1660708800 6.00 6.00 10
1660712400 7.00 7.00 12
1660716000 8.00 8.00 16
1660719600 9.00 9.00 20
1660723200 10.00 10.00 24
1660726800 11.00 11.00 25
1660730400 12.00 12.00 27
1660734000 13.00 13.00
1660737600 14.00 14.00 27
1660741200 15.00 15.00 28
1660744800 16.00 16.00 27
1660748400 17.00 17.00 26
1660752000 18.00 18.00
1660755600 19.00 19.00 23
1660759200 20.00 20.00 20

Aktuellste Messwerte

Temperatur
20 °C
Feuchtigkeit
30 %
Wind
10 km/hWindrichtung: Nordwest
Luftdruck
1015 hPa
Messzeit: 17. August 2022, 21.00Datenquelle: METAR

Weitere Messstationen in der Nähe

Messstation Temperatur Entfernung
Hoedspruit - 118 km
Maputo 25 °C 158 km
Polokwane 16 °C 243 km
Xai-Xai 21 °C 256 km
Pretoria 10 °C 291 km
Waterkloof 15 °C 295 km
Johannesburg 16 °C 301 km

Wind

Windrichtung Böen Mittelwind
° km/h km/h
1660676400 21.00 20.00 - 21.00 0
1660680000 22.00 21.00 - 22.00 0
1660683600 23.00 22.00 - 23.00
1660687200 0.00 23.00 - 0.00 330° 5
1660690800 1.00 0.00 - 1.00
1660694400 2.00 1.00 - 2.00 280° 5
1660698000 3.00 2.00 - 3.00 240° 5
1660701600 4.00 3.00 - 4.00 290° 5
1660705200 5.00 4.00 - 5.00 180° 10
1660708800 6.00 5.00 - 6.00 210° 5
1660712400 7.00 6.00 - 7.00 250° 10
1660716000 8.00 7.00 - 8.00 280° 5
1660719600 9.00 8.00 - 9.00 290° 5
1660723200 10.00 9.00 - 10.00 330° 5
1660726800 11.00 10.00 - 11.00 80° 15
1660730400 12.00 11.00 - 12.00 70° 20
1660734000 13.00 12.00 - 13.00
1660737600 14.00 13.00 - 14.00 50° 20
1660741200 15.00 14.00 - 15.00 40° 20
1660744800 16.00 15.00 - 16.00 50° 20
1660748400 17.00 16.00 - 17.00 40° 15
1660752000 18.00 17.00 - 18.00
1660755600 19.00 18.00 - 19.00 190° 5
1660759200 20.00 19.00 - 20.00 310° 5

Ihre Wetterstation

Fehlt Ihre Wetterstation auf unserem Portal?

Schreiben Sie an network@meteonews.ch

Klima

Wann ist es am wärmsten? Wann regnet es am wenigsten? Unsere Klimadaten geben Auskunft.